Weather History for Starkville, MS

Change the Weather History Date:

Wednesday, January 30, 2013

  Actual Average Record
Temperature  
Mean Temperature 54 °F -  
Max Temperature 71 °F 55 °F 71 °F (2013)
Min Temperature 37 °F 34 °F 5 °F (2014)
Degree Days  
Heating Degree Days 11    
Growing Degree Days 4 (Base 50)    
Moisture  
Dew Point 46 °F    
Average Humidity 80    
Maximum Humidity 100    
Minimum Humidity 54    
Precipitation  
Precipitation 0.98 in - - ()
Sea Level Pressure  
Sea Level Pressure 29.75 in    
Wind  
Wind Speed 10 mph (WSW)    
Max Wind Speed 21 mph    
Max Gust Speed 36 mph    
Visibility 9 miles    
Events Rain , Thunderstorm    
Averages and records for this station are not official NWS values.
T = Trace of Precipitation, MM = Missing Value Source: NWS Daily Summary

Daily Weather History Graph

Daily Weather History Graph

Search for Another Location

Airport:

Trip Planner

Search our weather history database for the weather conditions in past years. The results will help you decide how hot, cold, wet, or windy it might be!

Date:

Astronomy

Jan. 30, 2013 Rise Set
Actual Time 6:52 AM CST 5:25 PM CST
Civil Twilight 6:26 AM CST 5:51 PM CST
Nautical Twilight 5:56 AM CST 6:21 PM CST
Astronomical Twilight 5:27 AM CST 6:50 PM CST
Moon 9:08 PM CST (1/30) 8:33 AM CST (1/30)
Length of Visible Light 11h 25m
Length of Day
10h 32m
Waning Gibbous, 87% of the Moon is Illuminated
Jan 30
Waning Gibbous
Feb 3
Last Quarter
Feb 10
New
Feb 17
First Quarter
Feb 25
Full

Hourly Weather History & Observations

Time (CST) Temp. Windchill Dew Point Humidity Pressure Visibility Wind Dir Wind Speed Gust Speed Precip Events Conditions
12:15 AM 71.6 °F - 62.6 °F 73% 29.69 in 10.0 mi South 16.1 mph 28.8 mph N/A   Mostly Cloudy
12:35 AM 71.6 °F - 62.6 °F 73% 29.69 in 10.0 mi South 15.0 mph 25.3 mph N/A   Mostly Cloudy
12:55 AM 71.6 °F - 62.6 °F 73% 29.66 in 10.0 mi SSE 20.7 mph 28.8 mph N/A   Mostly Cloudy
1:15 AM 69.8 °F - 64.4 °F 83% 29.67 in 7.0 mi South 12.7 mph 27.6 mph N/A Rain Light Rain
1:55 AM 71.6 °F - 64.4 °F 78% 29.66 in 10.0 mi South 11.5 mph 23.0 mph N/A   Overcast
2:15 AM 71.6 °F - 64.4 °F 78% 29.65 in 10.0 mi South 11.5 mph 24.2 mph N/A   Overcast
2:35 AM 71.6 °F - 64.4 °F 78% 29.64 in 10.0 mi South 15.0 mph 28.8 mph N/A   Overcast
2:55 AM 69.8 °F - 64.4 °F 83% 29.63 in 10.0 mi South 13.8 mph 26.5 mph N/A Rain Light Rain
3:15 AM 69.8 °F - 64.4 °F 83% 29.62 in 10.0 mi South 13.8 mph 23.0 mph N/A   Mostly Cloudy
3:55 AM 69.8 °F - 64.4 °F 83% 29.59 in 10.0 mi South 11.5 mph 21.9 mph N/A   Overcast
4:15 AM 59.0 °F - 55.4 °F 88% 29.64 in 10.0 mi West 12.7 mph 24.2 mph 0.01 in Rain Light Rain
4:35 AM 55.4 °F - 53.6 °F 94% 29.66 in 2.0 mi WNW 6.9 mph 23.0 mph 0.38 in Rain Heavy Rain
4:55 AM 55.4 °F - 53.6 °F 94% 29.66 in 5.0 mi WNW 4.6 mph - 0.49 in Rain , Thunderstorm Light Thunderstorms and Rain
5:15 AM 55.4 °F - 53.6 °F 94% 29.67 in 5.0 mi West 3.5 mph - 0.10 in Rain Heavy Rain
5:35 AM 55.4 °F - 53.6 °F 94% 29.66 in 5.0 mi Calm Calm - 0.16 in Rain Rain
5:55 AM 53.6 °F - 53.6 °F 100% 29.66 in 7.0 mi Calm Calm - 0.20 in Rain Heavy Rain
6:15 AM 53.6 °F - 51.8 °F 94% 29.67 in 5.0 mi West 6.9 mph - 0.08 in Rain Heavy Rain
6:35 AM 53.6 °F - 51.8 °F 94% 29.66 in 5.0 mi West 5.8 mph - 0.17 in Rain Rain
6:55 AM 51.8 °F - 51.8 °F 100% 29.65 in 7.0 mi West 3.5 mph - 0.25 in Rain Rain
7:15 AM 51.8 °F - 51.8 °F 100% 29.64 in 10.0 mi West 3.5 mph - 0.02 in Rain Light Rain
7:35 AM 51.8 °F - 51.8 °F 100% 29.66 in 10.0 mi SW 3.5 mph - 0.03 in Rain Light Rain
7:55 AM 51.8 °F - 51.8 °F 100% 29.66 in 10.0 mi SSW 3.5 mph - 0.04 in Rain Light Rain
8:15 AM 51.8 °F - 51.8 °F 100% 29.64 in 10.0 mi Calm Calm - N/A   Overcast
8:35 AM 51.8 °F - 51.8 °F 100% 29.66 in 10.0 mi Calm Calm - N/A   Overcast
8:55 AM 51.8 °F - 51.8 °F 100% 29.66 in 10.0 mi SW 4.6 mph - N/A   Overcast
9:15 AM 51.8 °F - 51.8 °F 100% 29.68 in 10.0 mi SSW 4.6 mph - N/A   Overcast
9:35 AM 53.6 °F - 51.8 °F 94% 29.66 in 10.0 mi Calm Calm - N/A   Overcast
9:55 AM 53.6 °F - 51.8 °F 94% 29.67 in 10.0 mi SSW 6.9 mph - N/A   Overcast
10:15 AM 53.6 °F - 50.0 °F 88% 29.66 in 10.0 mi SSW 3.5 mph - N/A   Overcast
10:35 AM 53.6 °F - 50.0 °F 88% 29.67 in 10.0 mi SSW 4.6 mph - N/A   Overcast
10:55 AM 53.6 °F - 50.0 °F 88% 29.66 in 10.0 mi SW 5.8 mph - N/A   Overcast
11:15 AM 53.6 °F - 51.8 °F 94% 29.67 in 10.0 mi SSW 4.6 mph - N/A   Overcast
11:35 AM 53.6 °F - 50.0 °F 88% 29.67 in 10.0 mi SW 5.8 mph - N/A   Overcast
11:55 AM 55.4 °F - 50.0 °F 82% 29.67 in 10.0 mi SW 6.9 mph - N/A   Overcast
12:15 PM 55.4 °F - 48.2 °F 77% 29.66 in 10.0 mi WSW 8.1 mph - N/A   Overcast
12:35 PM 55.4 °F - 48.2 °F 77% 29.66 in 10.0 mi West 9.2 mph - N/A   Overcast
1:15 PM 55.4 °F - 46.4 °F 72% 29.65 in 10.0 mi SW 5.8 mph - N/A   Overcast
1:35 PM 55.4 °F - 48.2 °F 77% 29.65 in 10.0 mi WSW 5.8 mph - N/A   Overcast
1:55 PM 55.4 °F - 46.4 °F 72% 29.66 in 10.0 mi West 6.9 mph - N/A   Overcast
2:15 PM 53.6 °F - 41.0 °F 62% 29.68 in 10.0 mi West 10.4 mph 25.3 mph N/A   Overcast
2:55 PM 53.6 °F - 41.0 °F 62% 29.70 in 10.0 mi West 17.3 mph 28.8 mph N/A   Mostly Cloudy
3:15 PM 53.6 °F - 37.4 °F 54% 29.70 in 10.0 mi West 15.0 mph 25.3 mph N/A   Mostly Cloudy
3:35 PM 51.8 °F - 39.2 °F 62% 29.71 in 10.0 mi West 17.3 mph 24.2 mph N/A   Overcast
4:15 PM 50.0 °F - 37.4 °F 62% 29.76 in 10.0 mi WNW 20.7 mph 33.4 mph N/A   Mostly Cloudy
4:35 PM 46.4 °F 39.5 °F 39.2 °F 76% 29.78 in 10.0 mi West 17.3 mph 35.7 mph N/A   Overcast
4:55 PM 44.6 °F 37.2 °F 39.2 °F 81% 29.79 in 10.0 mi West 17.3 mph 25.3 mph N/A   Overcast
5:15 PM 44.6 °F 37.8 °F 37.4 °F 76% 29.82 in 10.0 mi West 15.0 mph 27.6 mph N/A   Mostly Cloudy
5:35 PM 44.6 °F 38.4 °F 37.4 °F 76% 29.84 in 10.0 mi West 12.7 mph 20.7 mph N/A   Overcast
5:55 PM 44.6 °F 40.2 °F 37.4 °F 76% 29.85 in 10.0 mi WNW 8.1 mph 19.6 mph N/A   Overcast
6:15 PM 42.8 °F 34.5 °F 33.8 °F 70% 29.86 in 10.0 mi West 18.4 mph 29.9 mph N/A   Overcast
6:55 PM 42.8 °F 37.0 °F 32.0 °F 66% 29.90 in 10.0 mi West 10.4 mph 21.9 mph N/A   Overcast
7:15 PM 42.8 °F 37.5 °F 32.0 °F 66% 29.91 in 10.0 mi West 9.2 mph 23.0 mph N/A   Overcast
7:35 PM 42.8 °F 37.5 °F 32.0 °F 66% 29.92 in 10.0 mi West 9.2 mph 19.6 mph N/A   Overcast
7:55 PM 42.8 °F 37.0 °F 32.0 °F 66% 29.94 in 10.0 mi West 10.4 mph 23.0 mph N/A   Overcast
8:15 PM 42.8 °F 37.5 °F 32.0 °F 66% 29.96 in 10.0 mi West 9.2 mph 25.3 mph N/A   Mostly Cloudy
8:35 PM 42.8 °F 37.5 °F 30.2 °F 61% 29.97 in 10.0 mi West 9.2 mph 23.0 mph N/A   Scattered Clouds
8:55 PM 41.0 °F 34.3 °F 30.2 °F 65% 29.99 in 10.0 mi West 11.5 mph 23.0 mph N/A   Scattered Clouds
9:15 PM 41.0 °F 34.7 °F 28.4 °F 61% 30.01 in 10.0 mi West 10.4 mph 21.9 mph N/A   Clear
9:55 PM 41.0 °F 35.2 °F 28.4 °F 61% 30.02 in 10.0 mi West 9.2 mph 16.1 mph N/A   Clear
10:15 PM 41.0 °F 35.8 °F 28.4 °F 61% 30.03 in 10.0 mi WNW 8.1 mph - N/A   Clear
10:35 PM 41.0 °F 35.2 °F 28.4 °F 61% 30.04 in 10.0 mi West 9.2 mph - N/A   Clear
11:15 PM 39.2 °F 33.6 °F 28.4 °F 65% 30.05 in 10.0 mi West 8.1 mph - N/A   Clear
11:35 PM 37.4 °F 32.1 °F 28.4 °F 70% 30.06 in 10.0 mi WNW 6.9 mph - N/A   Clear
11:55 PM 37.4 °F 32.8 °F 28.4 °F 70% 30.07 in 10.0 mi West 5.8 mph - N/A   Clear